Time;durP1;ratioP1;P1;durP2;ratioP2;P2;SDS_P1;SDS_P2;PMS_P1;PMS_P2;Temp;Humidity;BMP_temperature;BMP_pressure;BME280_temperature;BME280_humidity;BME280_pressure;Samples;Min_cycle;Max_cycle;Signal;HPM_P1;HPM_P2
2022/01/12 00:00:14;;;;;;;1.30;0.90;;;;;;;25.93;29.36;98206.47;4904861;29;20638;-58
2022/01/12 00:02:40;;;;;;;1.73;0.98;;;;;;;25.93;29.46;98210.91;4901854;29;20106;-59
2022/01/12 00:05:05;;;;;;;0.80;0.70;;;;;;;25.93;29.34;98211.72;4904740;29;20653;-59
2022/01/12 00:07:31;;;;;;;1.25;0.95;;;;;;;25.93;29.36;98213.53;4906679;29;20040;-58
2022/01/12 00:09:56;;;;;;;1.35;0.90;;;;;;;25.92;29.28;98209.16;4906673;29;20028;-59
2022/01/12 00:12:22;;;;;;;2.47;1.00;;;;;;;25.93;29.48;98213.53;4905643;29;20134;-56
2022/01/12 00:14:47;;;;;;;0.80;0.70;;;;;;;25.92;29.43;98209.16;4904387;29;20030;-59
2022/01/12 00:17:13;;;;;;;1.63;0.88;;;;;;;25.92;29.48;98215.28;4902790;29;20039;-57
2022/01/12 00:19:38;;;;;;;1.70;0.77;;;;;;;25.92;29.48;98214.41;4905586;28;20027;-57
2022/01/12 00:22:04;;;;;;;1.05;0.80;;;;;;;25.91;29.37;98210.94;4909168;29;20035;-58
2022/01/12 00:24:50;;;;;;;2.15;1.00;;;;;;;25.92;29.49;98209.16;4910632;29;20462;-57
2022/01/12 00:35:26;;;;;;;1.77;0.93;;;;;;;25.91;29.48;98217.94;4911509;29;20054;-59
2022/01/12 00:37:52;;;;;;;3.05;0.80;;;;;;;25.90;29.41;98221.50;4906301;29;20495;-59
2022/01/12 00:43:42;;;;;;;1.45;0.82;;;;;;;25.89;29.34;98209.28;4881772;23;20758;-61
2022/01/12 00:46:07;;;;;;;1.20;0.70;;;;;;;25.89;29.34;98214.53;4928039;23;23000;-60
2022/01/12 00:48:36;;;;;;;0.70;0.60;;;;;;;25.89;29.45;98219.78;4949428;28;20126;-61
2022/01/12 00:51:02;;;;;;;1.50;0.90;;;;;;;25.88;29.47;98218.91;4934707;28;20042;-62
2022/01/12 00:53:28;;;;;;;0.65;0.65;;;;;;;25.88;29.36;98228.53;4931545;28;20051;-61
2022/01/12 00:55:53;;;;;;;1.05;0.60;;;;;;;25.88;29.51;98228.53;4954075;28;21215;-58
2022/01/12 00:58:19;;;;;;;0.88;0.70;;;;;;;25.88;29.42;98228.53;4938414;28;20300;-57
2022/01/12 01:00:44;;;;;;;2.05;0.90;;;;;;;25.87;29.48;98224.19;4939555;28;20019;-57
2022/01/12 01:03:10;;;;;;;0.85;0.80;;;;;;;25.87;29.54;98227.69;4935525;28;20409;-56
2022/01/12 01:05:35;;;;;;;0.90;0.70;;;;;;;25.86;29.45;98225.13;4945743;28;20035;-55
2022/01/12 01:08:02;;;;;;;1.13;0.80;;;;;;;25.87;29.26;98234.69;4946571;28;20035;-57
2022/01/12 01:10:47;;;;;;;0.80;0.80;;;;;;;25.87;29.51;98243.44;4943898;28;20477;-57
2022/01/12 01:13:21;;;;;;;1.35;0.95;;;;;;;25.85;29.48;98231.28;4937694;28;22620;-58
2022/01/12 01:26:25;;;;;;;1.30;0.80;;;;;;;25.85;29.52;98249.66;4937716;28;20042;-56
2022/01/12 01:28:51;;;;;;;0.98;0.77;;;;;;;25.83;29.37;98250.53;4940946;28;20035;-58
2022/01/12 01:31:16;;;;;;;2.03;0.90;;;;;;;25.82;29.57;98240.94;4952416;28;20066;-56
2022/01/12 01:33:42;;;;;;;0.60;0.60;;;;;;;25.83;29.48;98253.16;4939037;28;20046;-58
2022/01/12 01:36:07;;;;;;;1.42;0.70;;;;;;;25.79;29.38;98246.31;4948793;28;20029;-55
2022/01/12 01:38:33;;;;;;;1.85;0.98;;;;;;;25.83;29.53;98252.31;4948312;28;20030;-57
2022/01/12 01:40:58;;;;;;;0.90;0.70;;;;;;;25.80;29.39;98242.78;4950555;28;20085;-59
2022/01/12 01:54:16;;;;;;;0.90;0.60;;;;;;;25.79;29.41;98241.06;4950395;28;20050;-58
2022/01/12 01:56:41;;;;;;;2.08;0.80;;;;;;;25.80;29.61;98234.91;4947897;28;20035;-58
2022/01/12 01:59:07;;;;;;;1.45;0.70;;;;;;;25.79;29.39;98227.94;4943805;28;20034;-60
2022/01/12 02:01:32;;;;;;;0.85;0.80;;;;;;;25.80;29.54;98231.41;4948754;28;20062;-57
2022/01/12 02:04:01;;;;;;;0.77;0.75;;;;;;;25.76;29.43;98229.78;4940665;28;20027;-55
2022/01/12 02:06:27;;;;;;;0.93;0.75;;;;;;;25.78;29.47;98223.56;4952885;28;20023;-58
2022/01/12 02:08:53;;;;;;;0.88;0.80;;;;;;;25.79;29.39;98227.94;4947951;28;20076;-57
2022/01/12 02:11:24;;;;;;;1.05;0.90;;;;;;;25.79;29.34;98235.81;4937747;28;20496;-55
2022/01/12 02:13:50;;;;;;;1.13;0.90;;;;;;;25.76;29.53;98233.28;4932034;28;20031;-57
2022/01/12 02:16:17;;;;;;;1.42;0.80;;;;;;;25.78;29.44;98244.56;4933500;28;20045;-57
2022/01/12 02:19:12;;;;;;;1.50;0.85;;;;;;;25.78;29.35;98254.22;4952430;28;20030;-57
2022/01/12 02:40:33;;;;;;;0.95;0.65;;;;;;;25.74;29.35;98253.44;4947607;28;20027;-56
2022/01/12 02:53:42;;;;;;;1.27;0.60;;;;;;;25.71;29.42;98235.19;4946931;28;20126;-56
2022/01/12 02:56:28;;;;;;;1.63;0.60;;;;;;;25.72;29.47;98236.91;4924145;28;20401;-58
2022/01/12 02:58:55;;;;;;;0.57;0.50;;;;;;;25.72;29.37;98243.91;4948255;28;20149;-57
2022/01/12 03:03:57;;;;;;;2.33;0.60;;;;;;;25.71;29.55;98232.56;4946028;28;20041;-58
2022/01/12 03:06:27;;;;;;;1.45;0.82;;;;;;;25.72;29.45;98241.28;4948446;28;20038;-54
2022/01/12 03:08:53;;;;;;;2.67;0.60;;;;;;;25.70;29.41;98243.94;4949283;28;20053;-56
2022/01/12 03:11:19;;;;;;;1.15;0.68;;;;;;;25.70;29.50;98241.31;4943061;28;20485;-58
2022/01/12 03:13:44;;;;;;;0.95;0.50;;;;;;;25.69;29.37;98240.47;4936891;28;20033;-55
2022/01/12 03:16:14;;;;;;;0.80;0.70;;;;;;;25.69;29.35;98239.59;4936878;28;20062;-57
2022/01/12 03:18:40;;;;;;;0.85;0.70;;;;;;;25.70;29.47;98249.19;4942423;28;20046;-57
2022/01/12 03:21:06;;;;;;;0.85;0.70;;;;;;;25.70;29.37;98241.31;4949101;28;20027;-57
2022/01/12 03:23:31;;;;;;;1.20;0.60;;;;;;;25.70;29.47;98241.31;4946685;28;20069;-55
2022/01/12 03:25:57;;;;;;;1.65;0.60;;;;;;;25.70;29.37;98243.94;4947891;28;20035;-58
2022/01/12 03:28:22;;;;;;;1.40;0.75;;;;;;;25.69;29.32;98240.47;4948894;28;20149;-55
2022/01/12 03:30:54;;;;;;;1.13;0.60;;;;;;;25.69;29.31;98247.47;4939905;28;20026;-57
2022/01/12 03:34:06;;;;;;;1.13;0.70;;;;;;;25.69;29.51;98257.97;4936670;28;20030;-54
2022/01/12 03:38:59;;;;;;;0.90;0.70;;;;;;;25.68;29.36;98270.25;4939191;28;20037;-57
2022/01/12 03:41:26;;;;;;;1.55;0.70;;;;;;;25.68;29.49;98282.53;4948517;28;20026;-58
2022/01/12 03:43:52;;;;;;;1.38;0.77;;;;;;;25.67;29.45;98278.19;4961995;28;20027;-58
2022/01/12 03:46:20;;;;;;;0.63;0.60;;;;;;;25.67;29.38;98272.94;4944696;28;20031;-57
2022/01/12 03:48:45;;;;;;;1.63;0.80;;;;;;;25.65;29.48;98269.47;4951058;28;20093;-58
2022/01/12 03:51:11;;;;;;;0.60;0.60;;;;;;;25.65;29.34;98269.47;4945757;28;20023;-57
2022/01/12 03:53:36;;;;;;;0.63;0.60;;;;;;;25.65;29.38;98272.09;4950612;28;20062;-58
2022/01/12 03:56:02;;;;;;;0.60;0.60;;;;;;;25.65;29.52;98272.97;4947917;28;20082;-56
2022/01/12 03:58:27;;;;;;;0.88;0.80;;;;;;;25.66;29.33;98279.09;4945771;28;20022;-57
2022/01/12 04:00:52;;;;;;;0.55;0.55;;;;;;;25.65;29.54;98279.97;4948734;28;20027;-57
2022/01/12 04:03:18;;;;;;;0.65;0.60;;;;;;;25.65;29.47;98286.09;4944659;28;20037;-58
2022/01/12 04:08:24;;;;;;;0.73;0.73;;;;;;;25.63;29.42;98277.38;4945941;28;20034;-56
2022/01/12 04:10:51;;;;;;;1.35;0.60;;;;;;;25.63;29.43;98277.38;4939996;28;20054;-57
2022/01/12 04:13:16;;;;;;;0.90;0.65;;;;;;;25.63;29.35;98277.38;4924539;28;20037;-58
2022/01/12 04:15:47;;;;;;;0.80;0.70;;;;;;;25.62;29.44;98269.59;4941880;28;20022;-57
2022/01/12 04:18:12;;;;;;;0.95;0.70;;;;;;;25.63;29.37;98276.53;4936656;28;20058;-56
2022/01/12 04:20:44;;;;;;;0.73;0.50;;;;;;;25.63;29.44;98281.81;4946721;28;20875;-58
2022/01/12 04:23:19;;;;;;;1.33;0.80;;;;;;;25.62;29.33;98272.22;4946742;28;20031;-57
2022/01/12 04:25:52;;;;;;;1.02;0.65;;;;;;;25.62;29.38;98264.34;4945144;28;20027;-57
2022/01/12 04:28:19;;;;;;;3.85;0.80;;;;;;;25.61;29.38;98263.47;4946654;28;20697;-58
2022/01/12 04:30:45;;;;;;;0.52;0.52;;;;;;;25.61;29.42;98263.47;4939435;28;20039;-58
2022/01/12 04:33:10;;;;;;;1.63;0.77;;;;;;;25.61;29.30;98273.09;4945840;28;20134;-55
2022/01/12 04:35:40;;;;;;;0.75;0.65;;;;;;;25.60;29.44;98276.63;4948433;28;20027;-58
2022/01/12 04:38:05;;;;;;;0.65;0.50;;;;;;;25.60;29.29;98274.88;4942035;28;20031;-60
2022/01/12 04:40:31;;;;;;;0.50;0.50;;;;;;;25.55;29.33;98274.97;4945104;28;20031;-55
2022/01/12 04:42:57;;;;;;;0.82;0.70;;;;;;;25.60;29.46;98293.25;4939595;28;20070;-57
2022/01/12 04:50:20;;;;;;;0.73;0.60;;;;;;;25.59;29.30;98281.00;4943716;28;20090;-58
2022/01/12 04:52:46;;;;;;;0.70;0.63;;;;;;;25.59;29.40;98285.41;4944511;28;20988;-57
2022/01/12 04:55:11;;;;;;;1.10;0.70;;;;;;;25.57;29.40;98299.44;4936802;28;20031;-57
2022/01/12 04:57:37;;;;;;;0.63;0.60;;;;;;;25.58;29.48;98300.28;4945488;28;20041;-58
2022/01/12 05:00:09;;;;;;;0.40;0.40;;;;;;;25.57;29.34;98320.44;4943890;28;20034;-55
2022/01/12 05:08:50;;;;;;;0.60;0.60;;;;;;;25.56;29.37;98323.94;4946075;28;20112;-58
2022/01/12 05:13:39;;;;;;;1.60;0.80;;;;;;;25.54;29.37;98317.88;4941357;28;20604;-58
2022/01/12 05:16:05;;;;;;;1.15;0.68;;;;;;;25.54;29.37;98324.88;4944251;28;20040;-58
2022/01/12 05:18:31;;;;;;;0.50;0.50;;;;;;;25.53;29.32;98328.41;4947316;28;20034;-58
2022/01/12 05:20:57;;;;;;;0.50;0.50;;;;;;;25.51;29.49;98314.47;4932411;28;20027;-58
2022/01/12 05:23:22;;;;;;;1.27;0.70;;;;;;;25.52;29.34;98321.44;4938344;28;20041;-54
2022/01/12 05:25:48;;;;;;;0.55;0.50;;;;;;;25.48;29.48;98325.94;4941312;28;20034;-57
2022/01/12 05:28:14;;;;;;;0.90;0.55;;;;;;;25.50;29.31;98329.34;4950597;28;20030;-56
2022/01/12 05:30:39;;;;;;;0.40;0.40;;;;;;;25.51;29.34;98336.31;4936690;28;20508;-58
2022/01/12 05:33:05;;;;;;;0.47;0.47;;;;;;;25.50;29.42;98334.59;4941598;28;20765;-58
2022/01/12 05:35:33;;;;;;;0.70;0.60;;;;;;;25.51;29.48;98348.59;4949204;28;20129;-58
2022/01/12 05:38:02;;;;;;;0.80;0.70;;;;;;;25.49;29.37;98343.38;4951171;28;20592;-58
2022/01/12 05:40:28;;;;;;;0.57;0.38;;;;;;;25.50;29.34;98337.22;4941563;28;22412;-55
2022/01/12 05:42:54;;;;;;;0.50;0.50;;;;;;;25.50;29.51;98333.72;4952737;28;20023;-61
2022/01/12 05:45:21;;;;;;;0.70;0.60;;;;;;;25.50;29.26;98350.34;4950040;28;20031;-58
2022/01/12 05:50:12;;;;;;;1.20;0.55;;;;;;;25.49;29.49;98353.88;4942017;28;20030;-57
2022/01/12 05:52:37;;;;;;;0.60;0.60;;;;;;;25.49;29.51;98343.38;4938132;28;20026;-58
2022/01/12 05:55:04;;;;;;;0.52;0.50;;;;;;;25.49;29.32;98338.13;4952565;28;20665;-57
2022/01/12 05:57:30;;;;;;;1.42;0.60;;;;;;;25.49;29.48;98332.03;4951719;28;20062;-56
2022/01/12 05:59:56;;;;;;;1.38;0.63;;;;;;;25.48;29.37;98333.81;4953302;28;20442;-56
2022/01/12 06:02:22;;;;;;;1.27;0.55;;;;;;;25.48;29.30;98344.31;4932909;28;20034;-56
2022/01/12 06:04:47;;;;;;;1.35;0.75;;;;;;;25.47;29.45;98339.94;4951565;28;20425;-58
2022/01/12 06:07:12;;;;;;;0.57;0.57;;;;;;;25.47;29.47;98350.44;4945635;28;20604;-56
2022/01/12 06:09:38;;;;;;;0.50;0.50;;;;;;;25.47;29.28;98350.44;4944884;28;20035;-58
2022/01/12 06:12:04;;;;;;;8.13;1.58;;;;;;;25.45;29.12;98347.00;4948258;28;20462;-58
2022/01/12 06:14:30;;;;;;;1.15;0.75;;;;;;;25.44;29.43;98350.53;4947112;28;20141;-58
2022/01/12 06:16:55;;;;;;;2.45;0.75;;;;;;;25.44;29.22;98353.16;4948943;28;20031;-58
2022/01/12 06:19:21;;;;;;;7.20;0.98;;;;;;;25.41;29.20;98351.47;4949250;28;20062;-58
2022/01/12 06:21:46;;;;;;;1.20;0.70;;;;;;;25.42;29.20;98350.56;4947775;28;20065;-59
2022/01/12 06:24:11;;;;;;;2.67;0.70;;;;;;;25.43;29.30;98369.78;4949432;28;20709;-58
2022/01/12 06:26:37;;;;;;;0.68;0.60;;;;;;;25.42;29.33;98368.06;4945295;28;20949;-60
2022/01/12 06:31:35;;;;;;;1.33;0.70;;;;;;;25.42;29.28;98378.56;4953283;28;20031;-55
2022/01/12 06:34:00;;;;;;;2.47;0.77;;;;;;;25.43;29.29;98390.78;4952843;28;20508;-57
2022/01/12 06:36:26;;;;;;;1.85;0.73;;;;;;;25.42;29.45;98397.81;4945627;28;20031;-57
2022/01/12 06:38:51;;;;;;;1.95;0.70;;;;;;;25.42;29.30;98395.19;4942105;28;20034;-59
2022/01/12 06:41:17;;;;;;;1.63;0.60;;;;;;;25.43;29.33;98390.78;4952621;28;20026;-57
2022/01/12 06:43:42;;;;;;;1.98;0.80;;;;;;;25.42;29.34;98391.69;4949045;28;20026;-55
2022/01/12 06:46:08;;;;;;;0.90;0.68;;;;;;;25.43;29.39;98382.91;4935314;28;20113;-56
2022/01/12 06:48:34;;;;;;;0.55;0.52;;;;;;;25.42;29.30;98373.31;4948219;28;20809;-57
2022/01/12 06:50:59;;;;;;;1.38;0.60;;;;;;;25.43;29.24;98388.16;4947355;28;20030;-58
2022/01/12 06:53:25;;;;;;;1.15;0.70;;;;;;;25.44;29.27;98374.16;4945578;28;20030;-55
2022/01/12 06:55:50;;;;;;;1.00;0.70;;;;;;;25.43;29.22;98365.41;4954266;28;20819;-57
2022/01/12 06:58:16;;;;;;;0.90;0.77;;;;;;;25.44;29.22;98371.53;4951125;28;20039;-56
2022/01/12 07:00:41;;;;;;;1.20;0.55;;;;;;;25.44;29.24;98367.13;4950739;28;20837;-57
2022/01/12 07:03:07;;;;;;;0.50;0.50;;;;;;;25.46;29.36;98380.22;4948816;28;20539;-58
2022/01/12 07:05:32;;;;;;;2.55;0.70;;;;;;;25.44;29.24;98380.25;4939521;28;20034;-56
2022/01/12 07:07:57;;;;;;;1.38;0.60;;;;;;;25.45;29.23;98383.75;4943071;28;21049;-57
2022/01/12 07:10:24;;;;;;;0.52;0.52;;;;;;;25.45;29.37;98394.25;4942621;28;20915;-57
2022/01/12 07:12:49;;;;;;;0.63;0.63;;;;;;;25.45;29.18;98397.69;4934266;28;20031;-59
2022/01/12 07:15:14;;;;;;;3.00;0.57;;;;;;;25.44;29.18;98397.78;4943211;28;20048;-60
2022/01/12 07:17:40;;;;;;;0.65;0.65;;;;;;;25.47;29.32;98404.69;4936562;28;20049;-59
2022/01/12 07:20:06;;;;;;;0.90;0.60;;;;;;;25.47;29.27;98397.66;4947847;28;20030;-60
2022/01/12 07:22:32;;;;;;;0.82;0.50;;;;;;;25.47;29.18;98405.53;4949901;28;20038;-58
2022/01/12 07:24:57;;;;;;;2.40;0.60;;;;;;;25.48;29.27;98404.66;4946254;28;20031;-59
2022/01/12 07:27:22;;;;;;;3.58;0.82;;;;;;;25.49;29.21;98406.38;4946032;28;20026;-60
2022/01/12 07:29:48;;;;;;;10.07;1.10;;;;;;;25.47;29.29;98400.28;4945000;28;21103;-59
2022/01/12 07:32:13;;;;;;;8.50;1.90;;;;;;;25.47;29.11;98408.16;4914240;28;20038;-60
2022/01/12 07:34:39;;;;;;;20.65;3.03;;;;;;;25.46;29.23;98416.94;4909376;28;20290;-61
2022/01/12 07:37:05;;;;;;;14.23;3.25;;;;;;;25.46;29.09;98414.31;4897967;28;20038;-60
2022/01/12 07:39:31;;;;;;;10.55;3.20;;;;;;;25.45;29.09;98410.81;4905397;28;20058;-62
2022/01/12 07:41:57;;;;;;;10.45;2.97;;;;;;;25.45;29.03;98410.81;4911327;28;20303;-62
2022/01/12 07:44:22;;;;;;;9.48;3.13;;;;;;;25.46;29.00;98406.44;4907323;28;20572;-62
2022/01/12 07:46:48;;;;;;;10.50;3.30;;;;;;;25.44;28.77;98403.03;4910705;28;20045;-60
2022/01/12 07:49:13;;;;;;;9.77;2.95;;;;;;;25.43;29.04;98407.41;4917441;28;20026;-62
2022/01/12 07:51:40;;;;;;;8.80;3.10;;;;;;;25.43;29.07;98407.41;4935503;28;20046;-60
2022/01/12 07:54:05;;;;;;;7.15;2.97;;;;;;;25.44;29.10;98408.28;4922043;28;20038;-62
2022/01/12 07:56:31;;;;;;;8.52;2.95;;;;;;;25.45;29.04;98410.00;4933319;28;20033;-59
2022/01/12 07:58:56;;;;;;;14.63;2.75;;;;;;;25.46;29.04;98416.94;4923442;28;20342;-60
2022/01/12 08:01:21;;;;;;;9.57;3.03;;;;;;;25.45;29.20;98415.25;4933846;28;20026;-61
2022/01/12 08:03:47;;;;;;;14.43;3.00;;;;;;;25.47;29.14;98423.91;4928392;28;20065;-60
2022/01/12 08:06:12;;;;;;;13.10;3.05;;;;;;;25.48;29.17;98440.53;4933775;28;21433;-59
2022/01/12 08:08:38;;;;;;;8.15;3.00;;;;;;;25.47;29.20;98452.78;4925120;28;20093;-60
2022/01/12 08:11:03;;;;;;;6.80;2.88;;;;;;;25.49;29.42;98463.25;4933207;28;20109;-59
2022/01/12 08:13:28;;;;;;;10.68;3.20;;;;;;;25.49;29.32;98474.63;4939466;28;20085;-59
2022/01/12 08:15:54;;;;;;;9.63;3.10;;;;;;;25.45;29.06;98479.06;4933299;28;20115;-61
2022/01/12 08:18:19;;;;;;;7.90;3.03;;;;;;;25.49;29.23;98495.63;4931272;28;20035;-59
2022/01/12 08:20:45;;;;;;;10.98;3.13;;;;;;;25.50;29.35;98486.84;4927908;28;20030;-61
2022/01/12 08:23:10;;;;;;;5.45;2.53;;;;;;;25.51;29.37;98478.06;4925419;28;20070;-61
2022/01/12 08:25:38;;;;;;;11.38;3.10;;;;;;;25.52;29.42;98476.31;4936952;28;20027;-61
2022/01/12 08:28:05;;;;;;;7.63;3.03;;;;;;;25.52;29.32;98490.28;4942940;28;20085;-61
2022/01/12 08:30:32;;;;;;;5.35;2.40;;;;;;;25.52;29.33;98471.91;4938375;28;20026;-59
2022/01/12 08:32:57;;;;;;;8.65;2.70;;;;;;;25.53;29.52;98480.66;4933325;28;20085;-60
2022/01/12 08:35:22;;;;;;;8.38;2.72;;;;;;;25.53;29.51;98496.41;4929414;28;20054;-62
2022/01/12 08:37:48;;;;;;;6.13;2.60;;;;;;;25.53;29.38;98484.16;4937447;28;20034;-61
2022/01/12 08:40:14;;;;;;;9.95;2.42;;;;;;;25.54;29.49;98467.50;4934946;28;20116;-62
2022/01/12 08:42:40;;;;;;;6.28;3.67;;;;;;;25.54;28.93;98467.50;4932535;28;20045;-61
2022/01/12 08:45:06;;;;;;;5.07;2.28;;;;;;;25.52;29.28;98458.78;4924846;28;20070;-60
2022/01/12 08:47:31;;;;;;;7.30;2.70;;;;;;;25.56;29.46;98454.38;4935592;28;20030;-62
2022/01/12 08:49:57;;;;;;;8.18;2.72;;;;;;;25.57;29.54;98458.72;4939409;28;20078;-59
2022/01/12 08:52:23;;;;;;;6.15;2.40;;;;;;;25.58;29.48;98481.44;4931003;28;20153;-63
2022/01/12 08:54:48;;;;;;;9.30;2.50;;;;;;;25.58;29.47;98489.31;4932991;28;21279;-62
2022/01/12 08:57:14;;;;;;;4.57;2.30;;;;;;;25.60;29.43;98491.88;4911690;28;20790;-61
2022/01/12 08:59:39;;;;;;;5.97;2.42;;;;;;;25.60;29.48;98494.50;4935872;28;20144;-60
2022/01/12 09:02:06;;;;;;;5.70;2.35;;;;;;;25.62;29.53;98482.22;4929912;28;21708;-62
2022/01/12 09:04:32;;;;;;;5.53;2.58;;;;;;;25.63;29.51;98481.31;4927185;28;20027;-62
2022/01/12 09:06:58;;;;;;;5.28;2.40;;;;;;;25.65;29.64;98471.63;4939070;28;20031;-62
2022/01/12 09:09:24;;;;;;;4.80;2.42;;;;;;;25.65;29.55;98479.50;4948282;28;20792;-62
2022/01/12 09:11:50;;;;;;;4.95;2.40;;;;;;;25.63;29.53;98483.94;4943176;28;20121;-59
2022/01/12 09:14:16;;;;;;;7.45;2.20;;;;;;;25.69;29.47;98500.41;4937472;28;20394;-62
2022/01/12 09:16:41;;;;;;;7.53;2.42;;;;;;;25.69;29.47;98508.28;4941594;28;20042;-62
2022/01/12 09:19:09;;;;;;;5.47;2.35;;;;;;;25.67;29.46;98517.94;4955260;28;20034;-62
2022/01/12 09:21:34;;;;;;;5.40;2.47;;;;;;;25.75;29.56;98525.66;4932074;28;20023;-62
2022/01/12 09:24:00;;;;;;;4.25;2.30;;;;;;;25.76;29.53;98529.13;4937625;28;20089;-61
2022/01/12 09:26:25;;;;;;;4.65;1.92;;;;;;;25.78;29.40;98527.34;4940476;28;20030;-62
2022/01/12 09:28:51;;;;;;;5.25;2.03;;;;;;;25.80;29.38;98534.25;4937234;28;20478;-62
2022/01/12 09:31:16;;;;;;;2.78;1.80;;;;;;;25.81;29.41;98522.84;4941069;28;20836;-61
2022/01/12 09:33:42;;;;;;;4.97;2.22;;;;;;;25.82;29.49;98529.81;4934863;28;20414;-63
2022/01/12 09:36:07;;;;;;;7.05;2.05;;;;;;;25.83;29.51;98534.16;4928099;28;20069;-60
2022/01/12 09:38:33;;;;;;;5.03;2.20;;;;;;;25.86;29.49;98542.88;4938523;28;20034;-62
2022/01/12 09:40:58;;;;;;;6.30;2.38;;;;;;;25.88;29.38;98533.19;4933240;28;21443;-59
2022/01/12 09:43:26;;;;;;;8.00;5.68;;;;;;;25.83;26.52;98531.53;4931595;28;20038;-66
2022/01/12 09:45:52;;;;;;;7.68;6.40;;;;;;;25.65;22.35;98522.38;4937942;28;20023;-65
2022/01/12 09:48:22;;;;;;;8.30;7.32;;;;;;;25.34;19.35;98506.47;4936444;28;20035;-64
2022/01/12 09:50:48;;;;;;;12.02;7.18;;;;;;;25.02;20.13;98503.72;4937083;28;20022;-61
2022/01/12 09:53:13;;;;;;;13.77;6.10;;;;;;;24.75;20.43;98509.50;4932092;28;20033;-60
2022/01/12 09:55:39;;;;;;;17.40;5.38;;;;;;;24.59;21.98;98519.47;4939362;28;20585;-63
2022/01/12 09:58:04;;;;;;;9.50;4.53;;;;;;;24.50;22.54;98530.13;4933275;28;23386;-59
2022/01/12 10:00:32;;;;;;;19.50;4.38;;;;;;;24.43;23.18;98534.63;4935174;28;20031;-62
2022/01/12 10:03:05;;;;;;;7.90;3.78;;;;;;;24.42;23.66;98543.41;4937200;28;20023;-62
2022/01/12 10:05:31;;;;;;;5.97;4.00;;;;;;;24.43;24.01;98545.13;4916213;28;20775;-61
2022/01/12 10:08:11;;;;;;;9.52;3.72;;;;;;;24.46;24.61;98538.94;4930963;28;20133;-61
2022/01/12 10:10:36;;;;;;;6.20;3.22;;;;;;;24.49;24.60;98534.50;4938655;28;20030;-62
2022/01/12 10:13:02;;;;;;;6.03;3.67;;;;;;;24.53;24.96;98546.66;4928091;28;20042;-61
2022/01/12 10:15:28;;;;;;;5.40;3.28;;;;;;;24.56;25.20;98544.88;4935176;28;21641;-59
2022/01/12 10:17:53;;;;;;;6.90;3.42;;;;;;;24.60;25.13;98536.91;4937684;28;20089;-63
2022/01/12 10:20:22;;;;;;;6.00;3.47;;;;;;;24.64;25.40;98532.47;4919221;28;20049;-62
2022/01/12 10:23:02;;;;;;;5.20;3.10;;;;;;;24.70;25.38;98534.97;4927190;28;20035;-60
2022/01/12 10:25:28;;;;;;;6.65;3.40;;;;;;;24.74;25.55;98538.38;4917145;28;20536;-60
2022/01/12 10:27:54;;;;;;;5.68;3.08;;;;;;;24.77;25.88;98540.94;4941934;28;20033;-64
2022/01/12 10:30:24;;;;;;;8.10;3.50;;;;;;;24.80;25.98;98538.25;4936292;28;21627;-58
2022/01/12 10:33:19;;;;;;;7.15;2.80;;;;;;;24.85;26.10;98535.56;4942375;28;20037;-62
2022/01/12 10:35:44;;;;;;;12.95;3.25;;;;;;;24.90;26.16;98529.31;4934214;28;20127;-66
2022/01/12 10:38:11;;;;;;;4.57;2.80;;;;;;;24.93;26.30;98533.63;4940224;28;20038;-60
2022/01/12 10:40:53;;;;;;;6.72;3.05;;;;;;;24.97;26.40;98545.78;4938064;28;20142;-60
2022/01/12 10:43:39;;;;;;;10.20;3.33;;;;;;;25.02;26.42;98549.16;4944939;28;20979;-58
2022/01/12 10:46:15;;;;;;;8.52;2.97;;;;;;;25.03;26.38;98543.03;4933578;28;20050;-61
2022/01/12 10:48:51;;;;;;;10.68;2.85;;;;;;;25.10;26.65;98546.41;4940248;28;20038;-61
2022/01/12 10:51:20;;;;;;;11.18;3.30;;;;;;;25.12;26.67;98548.97;4946712;28;20030;-61
2022/01/12 10:53:52;;;;;;;10.15;3.20;;;;;;;25.14;26.83;98548.03;4931559;28;20031;-61
2022/01/12 10:56:21;;;;;;;10.25;3.20;;;;;;;25.18;26.77;98559.34;4915770;28;20802;-61
2022/01/12 10:58:48;;;;;;;6.78;3.33;;;;;;;25.21;26.75;98555.78;4940745;28;20069;-62
2022/01/12 11:01:15;;;;;;;8.77;2.83;;;;;;;25.23;26.97;98556.59;4948822;28;20706;-59
2022/01/12 11:03:41;;;;;;;9.68;3.03;;;;;;;25.25;27.07;98566.16;4947395;28;20030;-60
2022/01/12 11:06:07;;;;;;;32.25;4.15;;;;;;;25.27;27.34;98556.50;4944499;28;20453;-70
2022/01/12 11:08:32;;;;;;;5.45;2.47;;;;;;;25.28;28.19;98555.59;4955753;28;20035;-68
2022/01/12 11:10:58;;;;;;;10.85;2.83;;;;;;;25.29;28.81;98544.19;4956275;28;20054;-69
2022/01/12 11:13:25;;;;;;;6.55;2.70;;;;;;;25.35;29.02;98555.47;4944735;28;20573;-67
2022/01/12 11:15:50;;;;;;;9.68;2.88;;;;;;;25.38;29.22;98556.25;4946350;28;20046;-71
2022/01/12 11:18:16;;;;;;;6.50;2.78;;;;;;;25.47;29.02;98547.28;4929985;28;20026;-72
2022/01/12 11:20:42;;;;;;;8.93;3.03;;;;;;;25.61;29.04;98547.00;4926030;28;20054;-69
2022/01/12 11:23:09;;;;;;;6.43;2.42;;;;;;;25.74;28.91;98550.16;4917294;28;20030;-66
2022/01/12 11:25:44;;;;;;;9.20;2.50;;;;;;;25.91;28.47;98543.63;4937507;28;20058;-69
2022/01/12 11:28:17;;;;;;;7.95;2.65;;;;;;;26.07;28.50;98539.69;4944390;28;20039;-68
2022/01/12 11:30:44;;;;;;;7.10;2.67;;;;;;;26.23;28.38;98544.53;4939298;28;20030;-68
2022/01/12 11:33:10;;;;;;;6.43;2.72;;;;;;;26.37;28.13;98546.81;4936342;28;20041;-70
2022/01/12 11:35:39;;;;;;;12.68;2.47;;;;;;;26.50;28.02;98536.81;4929469;28;20121;-63
2022/01/12 11:38:05;;;;;;;6.20;2.60;;;;;;;26.63;27.79;98528.56;4932358;28;20030;-63
2022/01/12 11:40:40;;;;;;;6.32;2.55;;;;;;;26.73;27.71;98528.25;4938357;28;20128;-62
2022/01/12 11:43:32;;;;;;;7.05;2.50;;;;;;;26.85;27.73;98521.78;4924033;28;20046;-64
2022/01/12 11:46:08;;;;;;;8.05;2.80;;;;;;;26.96;27.59;98518.84;4933319;28;20066;-64
2022/01/12 11:48:58;;;;;;;6.38;2.30;;;;;;;27.08;27.49;98509.69;4937729;28;20041;-61
2022/01/12 11:51:41;;;;;;;6.72;2.30;;;;;;;27.18;27.41;98502.38;4927991;28;20038;-63
2022/01/12 11:54:09;;;;;;;7.82;2.05;;;;;;;27.27;27.27;98501.25;4945186;28;20034;-69
2022/01/12 11:56:35;;;;;;;7.70;2.42;;;;;;;27.34;27.24;98484.31;4947945;28;20146;-70
2022/01/12 11:59:11;;;;;;;5.57;2.42;;;;;;;27.42;27.30;98478.81;4935186;28;20027;-66
2022/01/12 12:01:37;;;;;;;6.28;2.50;;;;;;;27.49;27.07;98468.91;4936529;28;20041;-69
2022/01/12 12:04:04;;;;;;;3.72;2.30;;;;;;;27.54;27.07;98461.75;4920183;28;20042;-67
2022/01/12 12:06:29;;;;;;;4.60;2.30;;;;;;;27.60;26.93;98466.78;4938797;28;20595;-68
2022/01/12 12:09:00;;;;;;;5.20;1.98;;;;;;;27.64;26.65;98452.66;4935061;28;20039;-64
2022/01/12 12:11:28;;;;;;;5.28;2.08;;;;;;;27.68;26.73;98450.75;4940325;28;20034;-63
2022/01/12 12:13:54;;;;;;;5.35;2.17;;;;;;;27.72;26.55;98452.38;4941154;28;20077;-64
2022/01/12 12:16:19;;;;;;;5.25;2.47;;;;;;;27.73;26.64;98456.72;4938605;28;20035;-65
2022/01/12 12:18:44;;;;;;;3.78;2.05;;;;;;;27.74;26.81;98463.72;4934114;28;20123;-70
2022/01/12 12:21:10;;;;;;;4.97;2.33;;;;;;;27.75;26.99;98454.91;4941666;28;20474;-70
2022/01/12 12:23:36;;;;;;;6.95;2.15;;;;;;;27.78;26.95;98453.94;4947343;28;20027;-65
2022/01/12 12:26:06;;;;;;;4.28;2.13;;;;;;;27.79;26.99;98455.66;4934360;28;20393;-70
2022/01/12 12:28:31;;;;;;;4.85;2.30;;;;;;;27.82;26.92;98460.81;4938691;28;20034;-67
2022/01/12 12:30:57;;;;;;;4.68;2.30;;;;;;;27.85;27.01;98459.84;4928130;28;20404;-64
2022/01/12 12:33:23;;;;;;;5.53;2.10;;;;;;;27.87;26.81;98458.88;4923552;28;22621;-71
2022/01/12 12:35:49;;;;;;;6.43;2.45;;;;;;;27.91;26.78;98455.22;4919724;28;20031;-73
2022/01/12 12:38:15;;;;;;;9.70;2.30;;;;;;;27.95;26.69;98444.59;4917448;28;20069;-63
2022/01/12 12:40:48;;;;;;;6.60;2.17;;;;;;;28.00;26.98;98450.53;4911591;28;20031;-64
2022/01/12 12:43:26;;;;;;;7.03;2.50;;;;;;;28.04;25.47;98449.53;4940015;28;20039;-62
2022/01/12 12:45:59;;;;;;;3.72;1.70;;;;;;;28.03;26.72;98443.38;4920171;28;20027;-67
2022/01/12 12:48:32;;;;;;;5.10;2.10;;;;;;;28.03;26.84;98446.00;4912762;28;20196;-67
2022/01/12 12:51:04;;;;;;;5.82;2.33;;;;;;;28.02;27.15;98443.44;4923635;28;20027;-67
2022/01/12 12:53:31;;;;;;;6.72;1.95;;;;;;;28.03;27.47;98440.75;4905904;29;20039;-64
2022/01/12 12:55:57;;;;;;;7.90;2.00;;;;;;;28.04;27.61;98444.25;4900100;29;20699;-64
2022/01/12 12:58:26;;;;;;;4.75;1.80;;;;;;;28.04;27.61;98444.25;4936414;28;20113;-65
2022/01/12 13:00:52;;;;;;;7.07;4.15;;;;;;;28.05;24.84;98451.22;4900232;29;20019;-62